Newquay, United Kingdom

10:05 PM GMT on February 12, 2016 (GMT +0000)
Newquay | | Change Station
CLOSE
Current Station
Personal Weather Station
Location: Newquay, CORNWALL
Elevation: 119 ft
Nearby Weather Stations

Elev 119 ft 50.42 °N, 5.05 °W | Updated 5 minutes ago

Light Rain
Light Rain
44.6 °F
Feels Like 41 °F
N
7.0
Wind Variable Wind from ESE
Gusts 15.0 mph

Today
High -- | Low -- °F
--% Chance of Precip.
Yesterday
High -- | Low -- °F
Precip. -- in
Pressure 29.24 in
Visibility 6.2 miles
Clouds Scattered Clouds 1200 ft
Mostly Cloudy 2800 ft
Windchill 41 °F
Dew Point 43 °F
Humidity 93%
Rainfall 0.36 in
Snow Depth Not available.
7:38 AM 5:31 PM
Waxing Crescent, 24% visible
METAR EGDR 122150Z 15005KT 9999 -RA SCT012 BKN028 06/06 Q0990 GRN
Pressure 29.24 in
Visibility 6.2 miles
Clouds Scattered Clouds 1200 ft
Mostly Cloudy 2800 ft
Windchill 41 °F
Dew Point 43 °F
Humidity 93%
Rainfall 0.36 in
Snow Depth Not available.
7:38 AM 5:31 PM
Waxing Crescent, 24% visible
METAR EGDR 122150Z 15005KT 9999 -RA SCT012 BKN028 06/06 Q0990 GRN

10-Day Weather Forecast

Almanac

Astronomy

Feb. 12, 2016 Rise Set
Actual Time
Civil Twilight
Nautical Twilight
Astronomical Twilight
Moon
Length of Visible Light
Length of Day
Tomorrow will be .
, % of the Moon is Illuminated

Today's Extremes

Country Highs Country Lows

Community

WunderPhotos

Upload Photos

1,892,411 photos uploaded!

WunderBlog® & News

Nearby

Air Quality

  Air Quality AQ Index Pollutant
Not available.

Snow Depth

Station Depth Elevation

Earthquake Activity

City Distance Mag. Time & Date
Minimum magnitude displayed is 2.5.

Coastal Water Temperatures

Place Temperature

Stations

Nearby Weather Stations

Station Location Temp. Windchill Dew Point Humidity Wind Precip. Elev Updated Type